Time;durP1;ratioP1;P1;durP2;ratioP2;P2;SDS_P1;SDS_P2;PMS_P1;PMS_P2;Temp;Humidity;BMP_temperature;BMP_pressure;BME280_temperature;BME280_humidity;BME280_pressure;Samples;Min_cycle;Max_cycle;Signal;HPM_P1;HPM_P2
2024/03/01 00:00:31;;;;;;;28.15;19.65;;;;;;;;;;5039649;28;20474;-81
2024/03/01 00:02:57;;;;;;;30.17;20.42;;;;;;;;;;5037500;28;20414;-81
2024/03/01 00:05:24;;;;;;;29.13;19.83;;;;;;;;;;5038625;28;20402;-80
2024/03/01 00:07:50;;;;;;;29.30;20.58;;;;;;;;;;5038392;28;20426;-80
2024/03/01 00:10:16;;;;;;;27.50;20.17;;;;;;;;;;5053635;28;20389;-81
2024/03/01 00:12:42;;;;;;;28.67;19.63;;;;;;;;;;5058537;28;20404;-81
2024/03/01 00:15:08;;;;;;;30.77;20.75;;;;;;;;;;5058578;28;20401;-79
2024/03/01 00:17:34;;;;;;;29.02;20.38;;;;;;;;;;5057074;28;20396;-80
2024/03/01 00:20:00;;;;;;;29.15;20.02;;;;;;;;;;5058385;28;20389;-81
2024/03/01 00:22:26;;;;;;;27.97;20.23;;;;;;;;;;5058373;28;20436;-80
2024/03/01 00:24:52;;;;;;;28.75;19.77;;;;;;;;;;5058875;28;20385;-81
2024/03/01 00:27:18;;;;;;;27.70;19.63;;;;;;;;;;5058164;28;20434;-80
2024/03/01 00:29:45;;;;;;;25.50;18.33;;;;;;;;;;5058049;28;20943;-80
2024/03/01 00:32:11;;;;;;;26.42;18.88;;;;;;;;;;5058144;28;20385;-81
2024/03/01 00:34:37;;;;;;;29.33;19.20;;;;;;;;;;5058097;28;20443;-81
2024/03/01 00:37:03;;;;;;;28.30;20.13;;;;;;;;;;5057744;28;20916;-80
2024/03/01 00:39:30;;;;;;;27.05;19.45;;;;;;;;;;5057947;28;20405;-80
2024/03/01 00:41:58;;;;;;;29.15;19.48;;;;;;;;;;5057218;28;20409;-80
2024/03/01 00:44:24;;;;;;;27.58;20.00;;;;;;;;;;5057077;28;20832;-80
2024/03/01 00:46:50;;;;;;;26.85;19.25;;;;;;;;;;5057051;28;20389;-80
2024/03/01 00:49:16;;;;;;;28.40;19.85;;;;;;;;;;5057189;28;20401;-81
2024/03/01 00:51:42;;;;;;;30.27;20.70;;;;;;;;;;5056697;28;20852;-79
2024/03/01 00:54:08;;;;;;;33.10;21.58;;;;;;;;;;5057617;28;20859;-80
2024/03/01 00:56:34;;;;;;;30.15;20.42;;;;;;;;;;5057552;28;20377;-81
2024/03/01 00:59:00;;;;;;;31.02;20.48;;;;;;;;;;5057342;28;20421;-80
2024/03/01 01:01:26;;;;;;;30.83;20.85;;;;;;;;;;5057833;28;20417;-81
2024/03/01 01:03:52;;;;;;;28.27;20.98;;;;;;;;;;5057493;28;20851;-81
2024/03/01 01:06:18;;;;;;;29.55;20.50;;;;;;;;;;5057370;28;20464;-80
2024/03/01 01:08:44;;;;;;;27.77;20.92;;;;;;;;;;5056910;28;20859;-81
2024/03/01 01:11:10;;;;;;;30.85;20.73;;;;;;;;;;5057191;28;20890;-80
2024/03/01 01:13:36;;;;;;;32.63;21.23;;;;;;;;;;5057394;28;20406;-81
2024/03/01 01:16:02;;;;;;;34.65;22.77;;;;;;;;;;5057228;28;20396;-80
2024/03/01 01:18:28;;;;;;;31.20;20.33;;;;;;;;;;5057102;28;20433;-80
2024/03/01 01:20:54;;;;;;;30.27;21.27;;;;;;;;;;5057081;28;20431;-80
2024/03/01 01:23:20;;;;;;;32.58;20.73;;;;;;;;;;5056649;28;20373;-80
2024/03/01 01:25:46;;;;;;;26.35;19.75;;;;;;;;;;5056528;28;20384;-81
2024/03/01 01:28:12;;;;;;;28.95;20.85;;;;;;;;;;5056583;28;20389;-81
2024/03/01 01:30:38;;;;;;;28.30;20.48;;;;;;;;;;5055959;28;20423;-81
2024/03/01 01:33:04;;;;;;;31.17;20.90;;;;;;;;;;5056661;28;20846;-80
2024/03/01 01:35:30;;;;;;;28.67;20.23;;;;;;;;;;5056847;28;20835;-80
2024/03/01 01:37:57;;;;;;;28.63;20.10;;;;;;;;;;5056099;28;20413;-81
2024/03/01 01:40:23;;;;;;;27.63;20.33;;;;;;;;;;5057111;28;20782;-79
2024/03/01 01:42:52;;;;;;;28.30;20.92;;;;;;;;;;5056680;28;20390;-81
2024/03/01 01:45:18;;;;;;;29.43;20.47;;;;;;;;;;5054401;28;20467;-80
2024/03/01 01:47:48;;;;;;;28.77;20.83;;;;;;;;;;5056205;28;20392;-80
2024/03/01 01:50:14;;;;;;;31.05;20.75;;;;;;;;;;5056669;28;20396;-81
2024/03/01 01:52:41;;;;;;;32.40;21.23;;;;;;;;;;5056459;28;20460;-79
2024/03/01 01:55:07;;;;;;;32.67;21.02;;;;;;;;;;5055845;28;20392;-80
2024/03/01 01:57:33;;;;;;;35.08;22.17;;;;;;;;;;5056427;28;20452;-81
2024/03/01 01:59:59;;;;;;;33.13;21.67;;;;;;;;;;5056458;28;20377;-80
2024/03/01 02:02:25;;;;;;;36.13;22.58;;;;;;;;;;5052698;28;20396;-80
2024/03/01 02:04:51;;;;;;;31.83;22.20;;;;;;;;;;5055491;28;20373;-80
2024/03/01 02:07:18;;;;;;;30.23;21.00;;;;;;;;;;5055445;28;20392;-80
2024/03/01 02:09:46;;;;;;;27.73;20.88;;;;;;;;;;5055894;28;20393;-80
2024/03/01 02:12:14;;;;;;;31.00;21.23;;;;;;;;;;5037355;28;20861;-80
2024/03/01 02:14:40;;;;;;;32.42;22.85;;;;;;;;;;5036225;28;20392;-80
2024/03/01 02:17:08;;;;;;;33.55;23.30;;;;;;;;;;5036335;28;20463;-81
2024/03/01 02:19:34;;;;;;;37.53;23.83;;;;;;;;;;5036432;28;20435;-81
2024/03/01 02:22:19;;;;;;;32.58;21.73;;;;;;;;;;5035889;28;20379;-80
2024/03/01 02:24:45;;;;;;;33.42;21.80;;;;;;;;;;5036144;28;20733;-80
2024/03/01 02:27:11;;;;;;;32.38;21.55;;;;;;;;;;5035940;28;20442;-80
2024/03/01 02:29:37;;;;;;;31.55;21.70;;;;;;;;;;5036095;28;20391;-80
2024/03/01 02:32:03;;;;;;;33.70;22.23;;;;;;;;;;5035423;28;20387;-81
2024/03/01 02:34:29;;;;;;;32.50;21.60;;;;;;;;;;5035755;28;20418;-80
2024/03/01 02:36:55;;;;;;;33.65;21.73;;;;;;;;;;5035742;28;20395;-80
2024/03/01 02:39:24;;;;;;;34.95;22.45;;;;;;;;;;5035643;28;20414;-80
2024/03/01 02:41:50;;;;;;;38.17;23.65;;;;;;;;;;5038235;28;20375;-80
2024/03/01 02:44:17;;;;;;;40.38;25.63;;;;;;;;;;5039396;28;20458;-81
2024/03/01 02:46:43;;;;;;;44.67;28.17;;;;;;;;;;5039535;28;20875;-81
2024/03/01 02:49:09;;;;;;;42.50;26.13;;;;;;;;;;5039952;28;20778;-81
2024/03/01 02:51:35;;;;;;;41.65;25.65;;;;;;;;;;5039807;28;20738;-81
2024/03/01 02:54:02;;;;;;;44.40;26.77;;;;;;;;;;5039543;28;20393;-81
2024/03/01 02:56:28;;;;;;;46.28;26.45;;;;;;;;;;5039480;28;20383;-81
2024/03/01 02:58:53;;;;;;;42.08;25.95;;;;;;;;;;5039517;28;20497;-80
2024/03/01 03:01:21;;;;;;;42.78;26.63;;;;;;;;;;5039184;28;20733;-80
2024/03/01 03:03:47;;;;;;;43.53;25.65;;;;;;;;;;5039203;28;20982;-81
2024/03/01 03:06:13;;;;;;;40.47;24.92;;;;;;;;;;5039076;28;20379;-81
2024/03/01 03:08:39;;;;;;;43.42;26.33;;;;;;;;;;5039007;28;20398;-81
2024/03/01 03:11:05;;;;;;;40.05;24.15;;;;;;;;;;5039370;28;20382;-81
2024/03/01 03:13:31;;;;;;;38.95;24.25;;;;;;;;;;5038919;28;20444;-81
2024/03/01 03:15:57;;;;;;;37.75;23.70;;;;;;;;;;5039756;28;20387;-80
2024/03/01 03:18:23;;;;;;;39.15;23.73;;;;;;;;;;5038817;28;20414;-81
2024/03/01 03:20:49;;;;;;;40.08;24.80;;;;;;;;;;5039233;28;20382;-81
2024/03/01 03:23:15;;;;;;;37.83;24.80;;;;;;;;;;5039507;28;20378;-81
2024/03/01 03:25:41;;;;;;;38.72;25.60;;;;;;;;;;5039423;28;20383;-81
2024/03/01 03:28:09;;;;;;;39.15;25.27;;;;;;;;;;5038966;28;20394;-81
2024/03/01 03:30:35;;;;;;;39.97;25.38;;;;;;;;;;5039245;28;20780;-81
2024/03/01 03:33:03;;;;;;;39.03;24.50;;;;;;;;;;5039458;28;20394;-81
2024/03/01 03:35:29;;;;;;;38.88;24.10;;;;;;;;;;5039415;28;20383;-80
2024/03/01 03:37:55;;;;;;;37.90;24.33;;;;;;;;;;5038848;28;20883;-81
2024/03/01 03:40:21;;;;;;;37.33;23.27;;;;;;;;;;5039595;28;20433;-81
2024/03/01 03:42:47;;;;;;;36.40;23.55;;;;;;;;;;5039236;28;20387;-80
2024/03/01 03:45:13;;;;;;;35.87;22.93;;;;;;;;;;5038737;28;20387;-80
2024/03/01 03:47:39;;;;;;;35.95;23.02;;;;;;;;;;5038473;28;20395;-81
2024/03/01 03:50:07;;;;;;;38.45;23.65;;;;;;;;;;5057243;28;20385;-81
2024/03/01 03:52:34;;;;;;;34.55;23.05;;;;;;;;;;5057870;28;20377;-80
2024/03/01 03:55:00;;;;;;;37.53;22.90;;;;;;;;;;5058232;28;20384;-80
2024/03/01 03:57:26;;;;;;;35.80;23.55;;;;;;;;;;5054884;28;20387;-81
2024/03/01 03:59:52;;;;;;;36.00;23.58;;;;;;;;;;5057809;28;20413;-81
2024/03/01 04:02:18;;;;;;;35.33;22.67;;;;;;;;;;5058484;28;20720;-81
2024/03/01 04:04:44;;;;;;;34.20;22.80;;;;;;;;;;5051679;28;20447;-81
2024/03/01 04:07:10;;;;;;;31.77;21.63;;;;;;;;;;5050764;28;20381;-79
2024/03/01 04:09:36;;;;;;;36.67;23.33;;;;;;;;;;5056737;28;20388;-80
2024/03/01 04:12:05;;;;;;;32.22;21.95;;;;;;;;;;5057643;28;21202;-80
2024/03/01 04:14:32;;;;;;;38.03;23.13;;;;;;;;;;5056268;28;20393;-80
2024/03/01 04:16:58;;;;;;;38.00;22.17;;;;;;;;;;5055637;28;20426;-81
2024/03/01 04:19:24;;;;;;;30.20;21.80;;;;;;;;;;5056603;28;20409;-80
2024/03/01 04:21:52;;;;;;;35.78;23.10;;;;;;;;;;5057460;28;20386;-80
2024/03/01 04:24:19;;;;;;;42.70;27.45;;;;;;;;;;5055061;28;20388;-81
2024/03/01 04:26:45;;;;;;;38.78;24.23;;;;;;;;;;5057866;28;20468;-81
2024/03/01 04:29:11;;;;;;;33.60;23.27;;;;;;;;;;5057157;28;20385;-81
2024/03/01 04:31:40;;;;;;;36.03;23.58;;;;;;;;;;5057424;28;20397;-81
2024/03/01 04:34:06;;;;;;;34.08;23.48;;;;;;;;;;5056828;28;20392;-81
2024/03/01 04:36:32;;;;;;;32.70;22.05;;;;;;;;;;5057730;28;20386;-81
2024/03/01 04:38:58;;;;;;;39.58;23.73;;;;;;;;;;5054689;28;20402;-80
2024/03/01 04:41:24;;;;;;;36.40;23.17;;;;;;;;;;5057589;28;20467;-80
2024/03/01 04:43:50;;;;;;;37.45;23.20;;;;;;;;;;5058451;28;20386;-80
2024/03/01 04:46:16;;;;;;;35.95;23.35;;;;;;;;;;5057798;28;20384;-80
2024/03/01 04:48:42;;;;;;;36.63;23.23;;;;;;;;;;5057378;28;20491;-80
2024/03/01 04:51:14;;;;;;;35.63;22.70;;;;;;;;;;5057504;28;20450;-80
2024/03/01 04:53:41;;;;;;;33.35;22.30;;;;;;;;;;5057566;28;20461;-80
2024/03/01 04:56:10;;;;;;;35.35;23.90;;;;;;;;;;5057506;28;20423;-81
2024/03/01 04:58:37;;;;;;;37.47;23.00;;;;;;;;;;5054499;28;20471;-80
2024/03/01 05:01:03;;;;;;;38.95;24.60;;;;;;;;;;5041251;28;20399;-80
2024/03/01 05:03:29;;;;;;;39.22;24.45;;;;;;;;;;5037004;28;20504;-80
2024/03/01 05:05:56;;;;;;;37.53;23.77;;;;;;;;;;5037555;28;20379;-80
2024/03/01 05:08:22;;;;;;;37.80;24.80;;;;;;;;;;5037688;28;20383;-80
2024/03/01 05:10:51;;;;;;;37.15;23.73;;;;;;;;;;5036859;28;20383;-80
2024/03/01 05:13:20;;;;;;;40.38;24.60;;;;;;;;;;5037544;28;20386;-80
2024/03/01 05:15:46;;;;;;;39.50;24.73;;;;;;;;;;5037226;28;20383;-79
2024/03/01 05:18:13;;;;;;;38.40;23.83;;;;;;;;;;5036963;28;20421;-79
2024/03/01 05:20:39;;;;;;;37.58;23.80;;;;;;;;;;5038005;28;20466;-80
2024/03/01 05:23:05;;;;;;;37.30;23.98;;;;;;;;;;5037295;28;20391;-80
2024/03/01 05:25:31;;;;;;;38.05;24.08;;;;;;;;;;5036698;28;20464;-81
2024/03/01 05:27:57;;;;;;;35.15;22.73;;;;;;;;;;5037150;28;20410;-80
2024/03/01 05:30:24;;;;;;;40.28;24.13;;;;;;;;;;5036552;28;20378;-80
2024/03/01 05:32:50;;;;;;;36.33;24.60;;;;;;;;;;5036533;28;20371;-80
2024/03/01 05:35:17;;;;;;;40.25;24.55;;;;;;;;;;5035996;28;20383;-80
2024/03/01 05:37:43;;;;;;;38.97;25.60;;;;;;;;;;5036294;28;20853;-80
2024/03/01 05:40:10;;;;;;;38.80;24.20;;;;;;;;;;5035770;28;20392;-80
2024/03/01 05:42:39;;;;;;;37.78;24.88;;;;;;;;;;5036221;28;20768;-80
2024/03/01 05:45:09;;;;;;;40.78;25.40;;;;;;;;;;5036072;28;20379;-79
2024/03/01 05:47:38;;;;;;;38.92;25.13;;;;;;;;;;5035773;28;20406;-80
2024/03/01 05:50:05;;;;;;;40.50;25.80;;;;;;;;;;5035680;28;20476;-79
2024/03/01 05:52:31;;;;;;;38.90;25.40;;;;;;;;;;5041428;28;20412;-79
2024/03/01 05:54:57;;;;;;;39.35;24.30;;;;;;;;;;5054629;28;20417;-79
2024/03/01 05:57:23;;;;;;;44.37;26.10;;;;;;;;;;5054471;28;20393;-79
2024/03/01 05:59:50;;;;;;;41.35;26.73;;;;;;;;;;5055133;28;20405;-79
2024/03/01 06:02:16;;;;;;;38.27;25.07;;;;;;;;;;5054703;28;20890;-80
2024/03/01 06:04:42;;;;;;;40.80;26.15;;;;;;;;;;5054183;28;20381;-78
2024/03/01 06:07:09;;;;;;;39.15;25.67;;;;;;;;;;5035388;28;20379;-79
2024/03/01 06:09:35;;;;;;;41.10;26.67;;;;;;;;;;5035206;28;20470;-80
2024/03/01 06:12:01;;;;;;;36.13;24.50;;;;;;;;;;5034575;28;20444;-79
2024/03/01 06:14:28;;;;;;;44.75;26.52;;;;;;;;;;5034264;28;20865;-80
2024/03/01 06:16:53;;;;;;;41.67;26.27;;;;;;;;;;5033585;28;20411;-80
2024/03/01 06:19:19;;;;;;;40.08;24.75;;;;;;;;;;5033993;28;20407;-80
2024/03/01 06:21:45;;;;;;;37.83;24.60;;;;;;;;;;5034275;28;20373;-81
2024/03/01 06:24:13;;;;;;;36.80;23.73;;;;;;;;;;5034390;28;20379;-80
2024/03/01 06:26:39;;;;;;;38.05;24.77;;;;;;;;;;5034016;28;20375;-80
2024/03/01 06:29:05;;;;;;;39.17;24.42;;;;;;;;;;5033504;28;20437;-79
2024/03/01 06:31:31;;;;;;;39.15;24.55;;;;;;;;;;5033891;28;20761;-80
2024/03/01 06:33:57;;;;;;;36.08;23.17;;;;;;;;;;5033768;28;20394;-80
2024/03/01 06:36:23;;;;;;;40.50;25.85;;;;;;;;;;5033930;28;20376;-80
2024/03/01 06:38:49;;;;;;;37.00;24.58;;;;;;;;;;5034099;28;20745;-80
2024/03/01 06:41:15;;;;;;;38.88;23.83;;;;;;;;;;5035059;28;20387;-80
2024/03/01 06:43:41;;;;;;;38.90;24.27;;;;;;;;;;5033961;28;20386;-79
2024/03/01 06:46:07;;;;;;;38.47;25.33;;;;;;;;;;5039274;28;20380;-79
2024/03/01 06:48:33;;;;;;;37.10;23.83;;;;;;;;;;5047613;28;20460;-79
2024/03/01 06:51:00;;;;;;;42.58;26.38;;;;;;;;;;5043130;28;20385;-79
2024/03/01 06:53:28;;;;;;;39.95;25.77;;;;;;;;;;5045735;28;20464;-79
2024/03/01 06:55:57;;;;;;;46.47;28.90;;;;;;;;;;5042273;28;20408;-79
2024/03/01 06:58:23;;;;;;;46.67;28.75;;;;;;;;;;5041896;28;20434;-80
2024/03/01 07:00:49;;;;;;;43.47;27.67;;;;;;;;;;5045205;28;20385;-80
2024/03/01 07:03:15;;;;;;;41.50;26.33;;;;;;;;;;5051145;28;20385;-80
2024/03/01 07:05:41;;;;;;;42.08;26.45;;;;;;;;;;5047942;28;20398;-80
2024/03/01 07:08:08;;;;;;;44.85;27.58;;;;;;;;;;5033398;28;20440;-80
2024/03/01 07:10:34;;;;;;;51.37;29.57;;;;;;;;;;5034411;28;20386;-80
2024/03/01 07:13:00;;;;;;;49.03;30.02;;;;;;;;;;5033985;28;20387;-81
2024/03/01 07:15:27;;;;;;;44.50;28.45;;;;;;;;;;5033711;28;20513;-81
2024/03/01 07:17:54;;;;;;;47.73;29.73;;;;;;;;;;5033574;28;20812;-80
2024/03/01 07:20:20;;;;;;;47.60;29.55;;;;;;;;;;5052107;28;20396;-80
2024/03/01 07:22:47;;;;;;;48.45;30.15;;;;;;;;;;5054246;28;20373;-81
2024/03/01 07:25:14;;;;;;;44.43;28.00;;;;;;;;;;5053993;28;20385;-81
2024/03/01 07:27:41;;;;;;;43.45;28.23;;;;;;;;;;5055503;28;20378;-81
2024/03/01 07:30:07;;;;;;;47.05;29.90;;;;;;;;;;5057666;28;20388;-81
2024/03/01 07:32:37;;;;;;;47.30;29.33;;;;;;;;;;5057401;28;20836;-81
2024/03/01 07:35:04;;;;;;;49.03;30.60;;;;;;;;;;5057580;28;20374;-81
2024/03/01 07:37:33;;;;;;;48.10;29.95;;;;;;;;;;5057413;28;20878;-80
2024/03/01 07:39:59;;;;;;;51.55;31.60;;;;;;;;;;5057066;28;20458;-80
2024/03/01 07:42:25;;;;;;;47.80;29.35;;;;;;;;;;5057093;28;20774;-80
2024/03/01 07:44:51;;;;;;;44.80;28.13;;;;;;;;;;5056489;28;20369;-81
2024/03/01 07:47:17;;;;;;;46.65;28.70;;;;;;;;;;5057226;28;20384;-80
2024/03/01 07:49:43;;;;;;;54.38;30.98;;;;;;;;;;5056651;28;20393;-81
2024/03/01 07:52:09;;;;;;;48.45;28.92;;;;;;;;;;5056943;28;20385;-81
2024/03/01 07:54:35;;;;;;;58.13;32.22;;;;;;;;;;5056985;28;20719;-80
2024/03/01 07:57:01;;;;;;;58.08;33.15;;;;;;;;;;5057287;28;20388;-81
2024/03/01 07:59:28;;;;;;;49.25;31.48;;;;;;;;;;5055180;28;20494;-81
2024/03/01 08:01:54;;;;;;;54.58;33.22;;;;;;;;;;5052697;28;20402;-80
2024/03/01 08:04:20;;;;;;;55.90;33.70;;;;;;;;;;5045297;28;20380;-81
2024/03/01 08:06:46;;;;;;;60.67;34.22;;;;;;;;;;5038352;28;21047;-80
2024/03/01 08:09:18;;;;;;;59.67;33.92;;;;;;;;;;5047721;28;20400;-81
2024/03/01 08:11:48;;;;;;;66.07;36.25;;;;;;;;;;5053739;28;20393;-80
2024/03/01 08:14:35;;;;;;;63.25;35.35;;;;;;;;;;5049485;28;20406;-81
2024/03/01 08:17:01;;;;;;;56.35;33.97;;;;;;;;;;5050059;28;20388;-81
2024/03/01 08:19:47;;;;;;;62.50;35.47;;;;;;;;;;5050013;28;20409;-81
2024/03/01 08:22:14;;;;;;;59.63;33.42;;;;;;;;;;5052982;28;20377;-80
2024/03/01 08:24:41;;;;;;;56.47;32.15;;;;;;;;;;5055977;28;20709;-80
2024/03/01 08:27:08;;;;;;;54.42;31.90;;;;;;;;;;5056838;28;20421;-80
2024/03/01 08:29:34;;;;;;;49.35;30.80;;;;;;;;;;5056634;28;20436;-80
2024/03/01 08:32:01;;;;;;;47.92;29.67;;;;;;;;;;5056432;28;20378;-81
2024/03/01 08:34:32;;;;;;;46.03;28.95;;;;;;;;;;5055230;28;20404;-81
2024/03/01 08:36:58;;;;;;;47.80;29.00;;;;;;;;;;5044720;28;20434;-81
2024/03/01 08:39:25;;;;;;;40.88;26.42;;;;;;;;;;5048605;28;20421;-80
2024/03/01 08:41:56;;;;;;;41.22;25.15;;;;;;;;;;5056031;28;20382;-81
2024/03/01 08:44:41;;;;;;;40.42;25.63;;;;;;;;;;5055658;28;20713;-80
2024/03/01 08:47:13;;;;;;;39.63;26.23;;;;;;;;;;5055618;28;20393;-81
2024/03/01 08:49:57;;;;;;;43.50;26.48;;;;;;;;;;5045930;28;20742;-81
2024/03/01 08:52:31;;;;;;;44.83;26.85;;;;;;;;;;5050281;28;20380;-81
2024/03/01 08:55:05;;;;;;;38.42;24.63;;;;;;;;;;5052466;28;20389;-81
2024/03/01 08:57:33;;;;;;;41.80;24.80;;;;;;;;;;5055349;28;20417;-81
2024/03/01 08:59:59;;;;;;;37.55;22.50;;;;;;;;;;5048885;28;20401;-80
2024/03/01 09:02:48;;;;;;;32.03;21.58;;;;;;;;;;5046548;28;20835;-81
2024/03/01 09:05:15;;;;;;;35.85;22.70;;;;;;;;;;5035257;28;20466;-81
2024/03/01 09:07:41;;;;;;;33.20;22.30;;;;;;;;;;5034501;28;20378;-80
2024/03/01 09:10:15;;;;;;;36.72;22.30;;;;;;;;;;5034826;28;20713;-81
2024/03/01 09:12:47;;;;;;;31.95;21.67;;;;;;;;;;5035426;28;20912;-81
2024/03/01 09:15:15;;;;;;;32.58;21.63;;;;;;;;;;5034811;28;20395;-80
2024/03/01 09:17:42;;;;;;;32.33;20.45;;;;;;;;;;5039580;28;20396;-80
2024/03/01 09:20:16;;;;;;;30.73;20.48;;;;;;;;;;5055307;28;20858;-82
2024/03/01 09:22:43;;;;;;;30.75;20.75;;;;;;;;;;5055325;28;20832;-81
2024/03/01 09:25:28;;;;;;;25.38;17.95;;;;;;;;;;5055377;28;20460;-81
2024/03/01 09:27:54;;;;;;;23.08;17.23;;;;;;;;;;5054820;28;20405;-81
2024/03/01 09:30:23;;;;;;;28.30;18.83;;;;;;;;;;5054424;28;20397;-81
2024/03/01 09:32:49;;;;;;;25.10;17.35;;;;;;;;;;5054527;28;20385;-81
2024/03/01 09:35:15;;;;;;;23.58;16.30;;;;;;;;;;5054236;28;20373;-81
2024/03/01 09:37:41;;;;;;;22.48;16.33;;;;;;;;;;5054160;28;20370;-81
2024/03/01 09:40:27;;;;;;;20.92;14.80;;;;;;;;;;5054628;28;20755;-81
2024/03/01 09:42:57;;;;;;;21.00;14.93;;;;;;;;;;5055024;28;20878;-81
2024/03/01 09:45:29;;;;;;;24.70;15.75;;;;;;;;;;5053498;28;20388;-80
2024/03/01 09:48:05;;;;;;;22.50;15.50;;;;;;;;;;5034342;28;20923;-81
2024/03/01 09:50:37;;;;;;;21.60;15.95;;;;;;;;;;5034811;28;20375;-81
2024/03/01 09:53:12;;;;;;;22.95;15.35;;;;;;;;;;5034459;28;20375;-80
2024/03/01 09:55:51;;;;;;;21.38;15.88;;;;;;;;;;5034597;28;20466;-81
2024/03/01 09:58:27;;;;;;;23.65;16.08;;;;;;;;;;5034177;28;20419;-81
2024/03/01 10:01:03;;;;;;;22.48;15.00;;;;;;;;;;5047987;28;20383;-81
2024/03/01 10:03:33;;;;;;;23.92;15.52;;;;;;;;;;5054155;28;20456;-81
2024/03/01 10:06:17;;;;;;;20.38;14.50;;;;;;;;;;5053730;28;20427;-81
2024/03/01 10:08:58;;;;;;;19.83;14.07;;;;;;;;;;5053611;28;20381;-81
2024/03/01 10:11:30;;;;;;;19.35;14.40;;;;;;;;;;5054708;28;20727;-82
2024/03/01 10:14:00;;;;;;;18.05;13.63;;;;;;;;;;5054663;28;20771;-80
2024/03/01 10:16:35;;;;;;;18.35;13.45;;;;;;;;;;5053786;28;20396;-81
2024/03/01 10:19:03;;;;;;;17.63;13.02;;;;;;;;;;5054246;28;20814;-81
2024/03/01 10:22:04;;;;;;;15.50;11.85;;;;;;;;;;5054311;28;20775;-81
2024/03/01 10:24:39;;;;;;;15.07;11.18;;;;;;;;;;5051686;28;20385;-82
2024/03/01 10:27:24;;;;;;;15.05;11.10;;;;;;;;;;5053760;28;20617;-82
2024/03/01 10:30:09;;;;;;;15.82;11.48;;;;;;;;;;5053969;28;20405;-82
2024/03/01 10:32:53;;;;;;;15.30;11.90;;;;;;;;;;5053804;28;20605;-82
2024/03/01 10:35:25;;;;;;;15.50;11.80;;;;;;;;;;5054496;28;20392;-81
2024/03/01 10:38:10;;;;;;;13.32;11.07;;;;;;;;;;5054511;28;20839;-82
2024/03/01 10:40:38;;;;;;;11.88;10.20;;;;;;;;;;5054031;28;20397;-82
2024/03/01 10:43:08;;;;;;;14.60;11.13;;;;;;;;;;5052812;28;20394;-82
2024/03/01 10:45:39;;;;;;;13.57;10.63;;;;;;;;;;5054953;28;20873;-82
2024/03/01 10:48:05;;;;;;;12.25;10.20;;;;;;;;;;5054386;28;20405;-82
2024/03/01 10:50:36;;;;;;;11.20;9.93;;;;;;;;;;5054032;28;20405;-81
2024/03/01 10:53:10;;;;;;;11.07;9.80;;;;;;;;;;5054086;28;20377;-81
2024/03/01 10:55:41;;;;;;;14.30;10.77;;;;;;;;;;5054175;28;20373;-82
2024/03/01 10:58:15;;;;;;;12.57;9.90;;;;;;;;;;5051381;28;20488;-82
2024/03/01 11:01:02;;;;;;;12.63;10.35;;;;;;;;;;5040302;28;20382;-82
2024/03/01 11:03:32;;;;;;;12.80;10.45;;;;;;;;;;5038110;28;20470;-82
2024/03/01 11:05:58;;;;;;;12.32;10.00;;;;;;;;;;5038788;28;20448;-82
2024/03/01 11:08:34;;;;;;;12.60;10.80;;;;;;;;;;5037955;28;20492;-81
2024/03/01 11:11:05;;;;;;;11.60;10.02;;;;;;;;;;5038368;28;20737;-82
2024/03/01 11:13:33;;;;;;;11.00;9.82;;;;;;;;;;5038688;28;20387;-81
2024/03/01 11:16:00;;;;;;;11.43;10.23;;;;;;;;;;5053670;28;20867;-82
2024/03/01 11:18:31;;;;;;;11.15;9.80;;;;;;;;;;5057701;28;21243;-82
2024/03/01 11:21:03;;;;;;;10.73;9.65;;;;;;;;;;5057981;28;20381;-82
2024/03/01 11:23:37;;;;;;;11.60;10.27;;;;;;;;;;5058328;28;20385;-82
2024/03/01 11:26:07;;;;;;;11.45;10.25;;;;;;;;;;5057420;28;20725;-81
2024/03/01 11:28:33;;;;;;;14.07;11.13;;;;;;;;;;5056980;28;20412;-81
2024/03/01 11:31:05;;;;;;;12.55;10.10;;;;;;;;;;5057430;28;20386;-81
2024/03/01 11:33:34;;;;;;;13.90;11.00;;;;;;;;;;5058128;28;20366;-81
2024/03/01 11:36:19;;;;;;;13.02;10.57;;;;;;;;;;5058155;28;20732;-82
2024/03/01 11:39:07;;;;;;;12.18;10.50;;;;;;;;;;5057993;28;20454;-81
2024/03/01 11:41:37;;;;;;;11.88;10.48;;;;;;;;;;5057890;28;20385;-81
2024/03/01 11:44:18;;;;;;;12.48;10.23;;;;;;;;;;5057761;28;20404;-81
2024/03/01 11:46:53;;;;;;;11.57;10.38;;;;;;;;;;5057148;28;20786;-81
2024/03/01 11:49:38;;;;;;;11.05;9.57;;;;;;;;;;5057353;28;20492;-81
2024/03/01 11:52:08;;;;;;;11.77;9.70;;;;;;;;;;5056136;28;20388;-81
2024/03/01 11:54:34;;;;;;;12.90;10.20;;;;;;;;;;5054948;28;20447;-82
2024/03/01 11:57:19;;;;;;;12.20;10.00;;;;;;;;;;5056739;28;20401;-81
2024/03/01 12:00:03;;;;;;;9.55;8.65;;;;;;;;;;5056053;28;20492;-81
2024/03/01 12:02:59;;;;;;;11.85;9.95;;;;;;;;;;5056047;28;20393;-81
2024/03/01 12:05:40;;;;;;;14.85;11.88;;;;;;;;;;5055382;28;20869;-81
2024/03/01 12:08:13;;;;;;;11.65;10.45;;;;;;;;;;5056097;28;20393;-81
2024/03/01 12:10:59;;;;;;;13.25;11.85;;;;;;;;;;5054423;28;20494;-82
2024/03/01 12:13:29;;;;;;;11.30;10.05;;;;;;;;;;5055060;28;20855;-82
2024/03/01 12:16:12;;;;;;;11.75;10.38;;;;;;;;;;5056706;28;20389;-81
2024/03/01 12:18:42;;;;;;;11.38;10.15;;;;;;;;;;5056205;28;20409;-82
2024/03/01 12:21:28;;;;;;;11.83;9.70;;;;;;;;;;5056470;28;20378;-82
2024/03/01 12:24:01;;;;;;;11.75;10.32;;;;;;;;;;5056405;28;20854;-82
2024/03/01 12:26:32;;;;;;;11.15;10.05;;;;;;;;;;5057092;28;20413;-81
2024/03/01 12:29:19;;;;;;;12.70;9.68;;;;;;;;;;5057168;28;20460;-82
2024/03/01 12:32:06;;;;;;;10.30;8.87;;;;;;;;;;5054416;28;20472;-82
2024/03/01 12:34:36;;;;;;;10.00;9.00;;;;;;;;;;5055297;28;20439;-81
2024/03/01 12:37:40;;;;;;;11.57;8.88;;;;;;;;;;5054186;28;20411;-82
2024/03/01 12:40:10;;;;;;;9.43;8.40;;;;;;;;;;5051627;28;20416;-80
2024/03/01 12:42:41;;;;;;;9.75;8.75;;;;;;;;;;5053432;28;20393;-82
2024/03/01 12:45:11;;;;;;;9.07;8.13;;;;;;;;;;5053398;28;20767;-81
2024/03/01 12:47:37;;;;;;;10.03;8.93;;;;;;;;;;5053388;28;20396;-81
2024/03/01 12:50:22;;;;;;;10.07;8.70;;;;;;;;;;5052849;28;20402;-81
2024/03/01 12:53:02;;;;;;;9.02;8.13;;;;;;;;;;5053374;28;21247;-82
2024/03/01 12:55:47;;;;;;;8.82;8.02;;;;;;;;;;5053819;28;20397;-82
2024/03/01 12:58:26;;;;;;;9.17;8.27;;;;;;;;;;5035450;28;20473;-81
2024/03/01 13:01:00;;;;;;;7.00;6.30;;;;;;;;;;5053929;28;20472;-81
2024/03/01 13:03:35;;;;;;;7.68;6.88;;;;;;;;;;5053499;28;20413;-82
2024/03/01 13:06:01;;;;;;;8.90;8.00;;;;;;;;;;5054249;28;20390;-81
2024/03/01 13:08:31;;;;;;;8.00;7.30;;;;;;;;;;5036736;28;20393;-82
2024/03/01 13:11:01;;;;;;;7.85;7.05;;;;;;;;;;5043752;28;20410;-81
2024/03/01 13:13:29;;;;;;;7.45;6.82;;;;;;;;;;5035546;28;20864;-81
2024/03/01 13:16:18;;;;;;;8.52;7.63;;;;;;;;;;5035323;28;20415;-82
2024/03/01 13:18:48;;;;;;;8.07;7.32;;;;;;;;;;5035164;28;20430;-82
2024/03/01 13:21:40;;;;;;;8.00;7.20;;;;;;;;;;5035544;28;20476;-82
2024/03/01 13:24:27;;;;;;;7.95;7.25;;;;;;;;;;5031671;28;20386;-82
2024/03/01 13:26:53;;;;;;;8.27;7.57;;;;;;;;;;5034910;28;20374;-81
2024/03/01 13:29:21;;;;;;;8.18;7.45;;;;;;;;;;5035406;28;20387;-82
2024/03/01 13:32:04;;;;;;;7.97;7.20;;;;;;;;;;5035357;28;20408;-81
2024/03/01 13:34:31;;;;;;;8.20;7.40;;;;;;;;;;5034877;28;20383;-82
2024/03/01 13:37:01;;;;;;;9.07;7.90;;;;;;;;;;5035332;28;20931;-82
2024/03/01 13:39:32;;;;;;;8.87;8.03;;;;;;;;;;5033812;28;20466;-82
2024/03/01 13:42:17;;;;;;;7.90;7.18;;;;;;;;;;5034832;28;20394;-81
2024/03/01 13:44:44;;;;;;;7.70;7.00;;;;;;;;;;5034439;28;20382;-82
2024/03/01 13:47:17;;;;;;;7.18;6.57;;;;;;;;;;5034081;28;20383;-82
2024/03/01 13:49:47;;;;;;;7.90;7.10;;;;;;;;;;5053330;28;20898;-82
2024/03/01 13:52:13;;;;;;;8.70;7.90;;;;;;;;;;5055495;28;20447;-81
2024/03/01 13:54:39;;;;;;;9.57;7.43;;;;;;;;;;5052268;28;20863;-81
2024/03/01 13:57:06;;;;;;;9.90;8.05;;;;;;;;;;5054180;28;20409;-81
2024/03/01 13:59:32;;;;;;;9.63;8.55;;;;;;;;;;5053423;28;20867;-82
2024/03/01 14:01:58;;;;;;;9.55;8.15;;;;;;;;;;5054560;28;20400;-82
2024/03/01 14:04:27;;;;;;;9.25;8.45;;;;;;;;;;5054027;28;20472;-82
2024/03/01 14:06:53;;;;;;;9.25;8.35;;;;;;;;;;5054740;28;20385;-81
2024/03/01 14:09:19;;;;;;;9.20;8.27;;;;;;;;;;5052376;28;20759;-82
2024/03/01 14:11:45;;;;;;;10.07;8.73;;;;;;;;;;5045628;28;20398;-81
2024/03/01 14:14:11;;;;;;;9.18;8.20;;;;;;;;;;5034893;28;20383;-82
2024/03/01 14:16:38;;;;;;;9.95;7.95;;;;;;;;;;5043825;28;20920;-82
2024/03/01 14:19:05;;;;;;;9.43;8.52;;;;;;;;;;5054603;28;20466;-82
2024/03/01 14:21:31;;;;;;;9.80;8.88;;;;;;;;;;5053851;28;20389;-82
2024/03/01 14:24:01;;;;;;;9.30;8.27;;;;;;;;;;5052752;28;20387;-82
2024/03/01 14:26:28;;;;;;;10.68;9.15;;;;;;;;;;5055136;28;20436;-82
2024/03/01 14:28:55;;;;;;;11.20;9.25;;;;;;;;;;5054601;28;20378;-82
2024/03/01 14:31:21;;;;;;;10.07;9.10;;;;;;;;;;5054202;28;20435;-82
2024/03/01 14:34:00;;;;;;;10.73;9.63;;;;;;;;;;5055167;28;20381;-82